Latest Weather Observations for Hillarys Point Boat Harbour

IDW60901

Issued at 10:51 pm WST Wednesday 25 May 2016 (issued every 10 minutes, with the page automatically refreshed every 10 minutes)

About weather observations | Map of Perth area stations | Latest observations for Perth area | Other Formats
Station Details ID: 009265 Name: HILLARYS BOAT HARBOUR NTC AWS Lat: -31.83 Lon: 115.74 Height: 0.0 m
Data from the previous 72 hours. | See also: Recent months for locations in Western Australia
Date/Time
WST
Tmp

°C
App
Tmp
°C
Dew
Point
°C
Rel
Hum
%
Delta-T

°C
Wind Press
QNH
hPa
Press
MSL
hPa
Rain
since
9 am
mm
Dir
 
Spd
km/h
Gust
km/h
Spd
kts
Gust
kts
25/10:30pm 17.3 - - - - WNW 9 15 5 8 1013.0 1013.0 -
25/10:00pm 16.8 - - - - NNW 7 13 4 7 1012.2 1012.2 -
25/09:30pm 16.8 - - - - NW 9 17 5 9 1012.9 1012.9 -
25/09:00pm 16.3 - - - - NNW 7 13 4 7 1012.7 1012.7 -
25/08:30pm 16.1 - - - - NNW 11 19 6 10 1013.1 1013.1 -
25/08:00pm 16.4 - - - - W 11 20 6 11 1013.0 1013.0 -
25/07:30pm 17.1 - - - - W 11 24 6 13 1013.1 1013.1 -
25/07:00pm 17.0 - - - - WNW 13 20 7 11 1012.8 1012.8 -
25/06:30pm 16.8 - - - - WSW 15 20 8 11 1012.6 1012.6 -
25/06:00pm 15.6 - - - - WSW 22 33 12 18 1012.3 1012.3 -
25/05:30pm 16.3 - - - - WSW 19 28 10 15 1011.9 1011.9 -
25/05:00pm 17.1 - - - - W 13 24 7 13 1011.7 1011.7 -
25/04:30pm 17.7 - - - - WNW 9 17 5 9 1011.7 1011.7 -
25/04:00pm 17.9 - - - - WNW 15 24 8 13 1011.4 1011.4 -
25/03:30pm 18.1 - - - - WNW 11 19 6 10 1011.3 1011.3 -
25/03:00pm 17.6 - - - - WNW 13 22 7 12 1011.3 1011.3 -
25/02:30pm 17.7 - - - - WNW 11 22 6 12 1011.3 1011.3 -
25/02:00pm 17.6 - - - - W 13 20 7 11 1011.2 1011.2 -
25/01:30pm 17.6 - - - - W 13 22 7 12 1011.2 1011.2 -
25/01:00pm 17.4 - - - - W 13 22 7 12 1011.2 1011.2 -
25/12:30pm 17.5 - - - - W 15 22 8 12 1011.2 1011.2 -
25/12:00pm 17.6 - - - - W 11 19 6 10 1011.5 1011.5 -
25/11:30am 17.2 - - - - WSW 13 20 7 11 1011.7 1011.7 -
25/11:00am 17.4 - - - - W 13 19 7 10 1011.8 1011.8 -
25/10:30am 17.4 - - - - W 11 19 6 10 1011.9 1011.9 -
25/10:00am 16.8 - - - - W 17 26 9 14 1011.9 1011.9 -
25/09:30am 17.0 - - - - WSW 17 22 9 12 1011.8 1011.8 -
25/09:00am 17.0 - - - - WSW 17 24 9 13 1011.7 1011.7 -
25/08:30am 16.9 - - - - W 6 15 3 8 1011.6 1011.6 -
25/08:00am 16.1 - - - - WSW 7 11 4 6 1011.5 1011.5 -
25/07:30am 15.8 - - - - WSW 26 35 14 19 1011.3 1011.3 -
25/07:00am 15.7 - - - - SW 13 26 7 14 1011.1 1011.1 -
25/06:30am 17.4 - - - - WSW 15 22 8 12 1010.6 1010.6 -
25/06:00am 17.3 - - - - WSW 13 22 7 12 1010.4 1010.4 -
25/05:30am 17.1 - - - - WSW 20 30 11 16 1010.2 1010.2 -
25/05:00am 17.3 - - - - WSW 15 22 8 12 1010.2 1010.2 -
25/04:30am 16.7 - - - - SW 17 26 9 14 1010.1 1010.1 -
25/04:00am 17.4 - - - - WSW 20 30 11 16 1010.0 1010.0 -
25/03:30am 17.0 - - - - WNW 11 19 6 10 1010.1 1010.1 -
25/03:00am 17.1 - - - - W 15 30 8 16 1010.2 1010.2 -
25/02:30am 17.1 - - - - SW 9 13 5 7 1010.2 1010.2 -
25/02:00am 16.8 - - - - SW 20 30 11 16 1010.2 1010.2 -
25/01:30am 17.2 - - - - WSW 15 20 8 11 1010.2 1010.2 -
25/01:00am 17.0 - - - - WSW 15 24 8 13 1010.3 1010.3 -
25/12:30am 17.1 - - - - SW 17 28 9 15 1010.3 1010.3 -
25/12:00am 16.7 - - - - SW 15 24 8 13 1010.3 1010.3 -
 
Date/Time
WST
Tmp

°C
App
Tmp
°C
Dew
Point
°C
Rel
Hum
%
Delta-T

°C
Wind Press
QNH
hPa
Press
MSL
hPa
Rain
since
9 am
mm
Dir
 
Spd
km/h
Gust
km/h
Spd
kts
Gust
kts
24/11:30pm 16.9 - - - - WSW 15 22 8 12 1010.2 1010.2 -
24/11:00pm 17.4 - - - - WSW 17 26 9 14 1010.3 1010.3 -
24/10:30pm 16.8 - - - - SW 11 22 6 12 1010.5 1010.5 -
24/10:00pm 17.0 - - - - WSW 17 28 9 15 1010.5 1010.5 -
24/09:30pm 17.3 - - - - WSW 19 26 10 14 1010.4 1010.4 -
24/09:00pm 16.9 - - - - WSW 15 37 8 20 1010.5 1010.5 -
24/08:30pm 17.1 - - - - SW 19 28 10 15 1010.4 1010.4 -
24/08:00pm 17.1 - - - - WSW 13 19 7 10 1010.4 1010.4 -
24/07:30pm 16.8 - - - - SW 20 32 11 17 1010.4 1010.4 -
24/07:00pm 17.4 - - - - W 17 26 9 14 1010.1 1010.1 -
24/06:30pm 17.5 - - - - W 15 28 8 15 1009.8 1009.8 -
24/06:00pm 17.6 - - - - WSW 20 28 11 15 1009.3 1009.3 -
24/05:30pm 17.7 - - - - WSW 19 26 10 14 1008.9 1008.9 -
24/05:00pm 17.6 - - - - WSW 19 26 10 14 1008.7 1008.7 -
24/04:30pm 17.4 - - - - SW 17 24 9 13 1008.5 1008.5 -
24/04:00pm 17.1 - - - - SW 20 28 11 15 1008.4 1008.4 -
24/03:30pm 17.7 - - - - WSW 20 28 11 15 1008.0 1008.0 -
24/03:00pm 17.4 - - - - WSW 17 26 9 14 1007.8 1007.8 -
24/02:30pm 17.2 - - - - WSW 26 33 14 18 1007.5 1007.5 -
24/02:00pm 17.8 - - - - WSW 22 30 12 16 1007.3 1007.3 -
24/01:30pm 17.9 - - - - WSW 19 28 10 15 1007.0 1007.0 -
24/01:00pm 18.0 - - - - WSW 22 28 12 15 1007.0 1007.0 -
24/12:30pm 18.1 - - - - WSW 22 33 12 18 1007.0 1007.0 -
24/12:00pm 18.0 - - - - WSW 24 35 13 19 1007.4 1007.4 -
24/11:30am 18.1 - - - - WSW 26 35 14 19 1007.6 1007.6 -
24/11:00am 18.1 - - - - WSW 32 43 17 23 1007.7 1007.7 -
24/10:30am 18.2 - - - - WSW 32 43 17 23 1007.4 1007.4 -
24/10:00am 18.3 - - - - WSW 30 43 16 23 1007.1 1007.1 -
24/09:30am 18.4 - - - - SW 28 39 15 21 1007.1 1007.1 -
24/09:00am 17.7 - - - - SW 28 43 15 23 1006.9 1006.9 -
24/08:30am 18.8 - - - - WSW 24 39 13 21 1006.1 1006.1 -
24/08:00am 18.2 - - - - SW 26 41 14 22 1005.8 1005.8 -
24/07:30am 18.0 - - - - SW 26 39 14 21 1005.0 1005.0 -
24/07:16am 17.5 - - - - SW 32 52 17 28 1004.6 1004.6 -
24/07:00am 18.9 - - - - WSW 35 54 19 29 1004.0 1004.0 -
24/06:54am 18.9 - - - - WSW 32 54 17 29 1003.8 1003.8 -
24/06:30am 17.5 - - - - SW 33 48 18 26 1003.7 1003.7 -
24/06:00am 18.0 - - - - WSW 35 46 19 25 1002.8 1002.8 -
24/05:30am 18.4 - - - - WSW 37 52 20 28 1002.2 1002.2 -
24/05:25am 18.4 - - - - W 35 52 19 28 1002.1 1002.1 -
24/05:00am 18.8 - - - - NNW 28 50 15 27 1001.0 1001.0 -
24/04:30am 19.0 - - - - NNW 28 52 15 28 1001.2 1001.2 -
24/04:00am 18.7 - - - - NNW 30 56 16 30 1001.5 1001.5 -
24/03:37am 17.8 - - - - NNW 28 46 15 25 1002.0 1002.0 -
24/03:30am 17.6 - - - - NNW 24 46 13 25 1002.1 1002.1 -
24/03:00am 16.8 - - - - N 19 35 10 19 1002.3 1002.3 -
24/02:30am 16.7 - - - - N 19 35 10 19 1002.9 1002.9 -
24/02:00am 16.8 - - - - N 19 32 10 17 1003.2 1003.2 -
24/01:30am 16.5 - - - - N 17 33 9 18 1003.6 1003.6 -
24/01:00am 16.7 - - - - N 15 26 8 14 1004.8 1004.8 -
24/12:30am 17.6 - - - - N 17 26 9 14 1005.1 1005.1 -
24/12:00am 17.3 - - - - N 17 28 9 15 1004.6 1004.6 -
 
Date/Time
WST
Tmp

°C
App
Tmp
°C
Dew
Point
°C
Rel
Hum
%
Delta-T

°C
Wind Press
QNH
hPa
Press
MSL
hPa
Rain
since
9 am
mm
Dir
 
Spd
km/h
Gust
km/h
Spd
kts
Gust
kts
23/11:30pm 17.7 - - - - N 15 24 8 13 1006.0 1006.0 -
23/11:00pm 18.2 - - - - N 19 30 10 16 1006.3 1006.3 -
23/10:30pm 18.0 - - - - N 17 28 9 15 1006.6 1006.6 -
23/10:00pm 18.0 - - - - N 17 26 9 14 1007.2 1007.2 -
23/09:30pm 18.1 - - - - N 15 24 8 13 1007.2 1007.2 -
23/09:00pm 18.3 - - - - NNE 15 24 8 13 1007.8 1007.8 -
23/08:30pm 18.3 - - - - NNE 13 22 7 12 1008.1 1008.1 -
23/08:00pm 18.6 - - - - N 11 19 6 10 1009.2 1009.2 -
23/07:30pm 18.4 - - - - N 9 15 5 8 1009.7 1009.7 -
23/07:00pm 18.1 - - - - NNE 9 17 5 9 1009.6 1009.6 -
23/06:30pm 18.4 - - - - NNE 9 15 5 8 1009.8 1009.8 -
23/06:00pm 18.9 - - - - N 9 17 5 9 1010.0 1010.0 -
23/05:30pm 19.3 - - - - N 11 19 6 10 1010.4 1010.4 -
23/05:00pm 19.4 - - - - NNE 13 20 7 11 1010.0 1010.0 -
23/04:30pm 19.6 - - - - NNE 17 26 9 14 1010.2 1010.2 -
23/04:00pm 19.9 - - - - NNE 17 28 9 15 1010.8 1010.8 -
23/03:30pm 19.5 - - - - N 19 32 10 17 1011.2 1011.2 -
23/03:00pm 19.9 - - - - N 17 28 9 15 1011.8 1011.8 -
23/02:30pm 20.0 - - - - N 19 32 10 17 1012.6 1012.6 -
23/02:00pm 19.3 - - - - NNE 17 30 9 16 1013.3 1013.3 -
23/01:30pm 19.5 - - - - N 19 28 10 15 1014.1 1014.1 -
23/01:00pm 19.4 - - - - NNE 19 30 10 16 1014.5 1014.5 -
23/12:30pm 18.9 - - - - NNE 20 37 11 20 1015.5 1015.5 -
23/12:00pm 19.0 - - - - N 19 32 10 17 1016.5 1016.5 -
23/11:30am 18.5 - - - - N 20 35 11 19 1017.4 1017.4 -
23/11:00am 18.3 - - - - N 17 35 9 19 1018.3 1018.3 -
23/10:30am 17.2 - - - - N 13 24 7 13 1018.8 1018.8 -
23/10:00am 15.9 - - - - NNE 13 20 7 11 1019.1 1019.1 -
23/09:30am 15.3 - - - - NNE 13 28 7 15 1019.0 1019.0 -
23/09:00am 14.4 - - - - NNE 13 24 7 13 1019.1 1019.1 -
23/08:30am 13.5 - - - - NNE 15 24 8 13 1019.3 1019.3 -
23/08:00am 13.2 - - - - NNE 13 20 7 11 1019.6 1019.6 -
23/07:30am 12.7 - - - - NNE 11 19 6 10 1019.2 1019.2 -
23/07:00am 12.8 - - - - NNE 13 22 7 12 1019.2 1019.2 -
23/06:30am 12.7 - - - - NNE 15 22 8 12 1019.5 1019.5 -
23/06:00am 12.7 - - - - NNE 11 17 6 9 1019.7 1019.7 -
23/05:30am 12.5 - - - - NNE 11 17 6 9 1019.4 1019.4 -
23/05:00am 12.5 - - - - NNE 11 19 6 10 1019.4 1019.4 -
23/04:30am 12.4 - - - - NNE 7 13 4 7 1019.4 1019.4 -
23/04:00am 12.9 - - - - NNE 6 9 3 5 1019.5 1019.5 -
23/03:30am 13.2 - - - - ENE 4 7 2 4 1019.7 1019.7 -
23/03:00am 13.5 - - - - ENE 4 7 2 4 1019.8 1019.8 -
23/02:30am 13.8 - - - - ESE 4 7 2 4 1019.8 1019.8 -
23/02:00am 14.0 - - - - NNE 9 15 5 8 1019.9 1019.9 -
23/01:30am 14.4 - - - - NE 7 13 4 7 1020.0 1020.0 -
23/01:00am 14.7 - - - - NE 9 15 5 8 1020.2 1020.2 -
23/12:30am 15.7 - - - - N 6 9 3 5 1020.7 1020.7 -
23/12:00am 16.4 - - - - W 17 26 9 14 1020.9 1020.9 -
 
Date/Time
WST
Tmp

°C
App
Tmp
°C
Dew
Point
°C
Rel
Hum
%
Delta-T

°C
Wind Press
QNH
hPa
Press
MSL
hPa
Rain
since
9 am
mm
Dir
 
Spd
km/h
Gust
km/h
Spd
kts
Gust
kts
22/11:30pm 15.0 - - - - NNE 4 9 2 5 1021.2 1021.2 -
22/11:00pm 15.4 - - - - NNE 7 13 4 7 1021.0 1021.0 -

Latest Capital City Observations: Canberra | Sydney | Melbourne | Brisbane | Adelaide | Perth | Hobart | Darwin

Other Formats:

Comma delimited format used in spreadsheet applications
http://www.bom.gov.au/fwo/IDW60901/IDW60901.95605.axf

JavaScript Object Notation format (JSON) in row-major order
http://www.bom.gov.au/fwo/IDW60901/IDW60901.95605.json